Oil Valley, Kentucky
Current Conditions -  °F | °C
As of 12:56 AM on Monday 26 Jan 2015 (Local Time) from KEKQ Reporting Station
Haze Haze  
Wind Chill: 33°   Ceiling: 1000
Heat Index: 39°   Visibility: 5mi
Dew Point: 38°   Wind: 9mph
Humidity: 97%   Direction: 250°WSW
Pressure: 29.7"   Gusts: NA
Location:  36.8129°N, 84.8215°W
Report Text: KEKQ 260556Z AUTO 25008KT 5SM BR OVC010 04/03 A2970 RMK AO2 50005 60008 T00380033 10100 20038 CIG 008V013 SLP061
Loading
Personal Weather Stations






























Interactive Weather Map New forecast layout! Learn more

10-Day Weather Forecast

Advertisements
Track Severe Weather on mobile